KSHV/SHV METAR and TAF weather

Enter ICAO airport designator
Station Type Date Time Source
KSHV METAR 2019/06/17 05:56 UTC NOAA

KSHV 170556Z 35006KT 10SM SCT200 OVC280 21/18 A2982 RMK AO2 SLP095 60000 T02060178 10211 20194 402670194 56037


Station Type Date Time Source
KSHV Decoded METAR 2019/06/17 05:56 UTC NOAA

SHREVEPORT REGIONAL AIRPORT, LA, United States (KSHV) 32-27N 93-50W 80M
Jun 17, 2019 - 01:56 AM EDT / 2019.06.17 0556 UTC
Wind: from the N (350 degrees) at 7 MPH (6 KT):0
Visibility: 10 mile(s):0
Sky conditions: overcast
Temperature: 69.1 F (20.6 C)
Dew Point: 64.0 F (17.8 C)
Relative Humidity: 83%
Pressure (altimeter): 29.82 in. Hg (1009 hPa)
Pressure tendency: 0.11 inches (3.7 hPa) lower than three hours ago
ob: KSHV 170556Z 35006KT 10SM SCT200 OVC280 21/18 A2982 RMK AO2 SLP095 60000 T02060178 10211 20194 402670194 56037
cycle: 6

Station Type Date Time Source
KSHV TAF 2019/06/17 06:42 UTC NOAA

TAF KSHV 170540Z 1706/1806 20009G20KT P6SM FEW200 OVC270
FM170900 18005KT P6SM VCSH BKN020 OVC040
FM171600 22012KT P6SM VCTS SCT020 BKN035CB
FM172000 23013G21KT P6SM SCT030 BKN050
FM180000 24005KT P6SM FEW030 SCT050

Example: see airport list